sensor_id;sensor_type;location;lat;lon;timestamp;P1;durP1;ratioP1;P2;durP2;ratioP2
78893;SDS011;68282;42.698;23.350;2023-05-23T00:01:13;7.18;;;4.97;;
78893;SDS011;68282;42.698;23.350;2023-05-23T00:03:43;7.72;;;5.60;;
78893;SDS011;68282;42.698;23.350;2023-05-23T00:06:09;11.23;;;5.78;;
78893;SDS011;68282;42.698;23.350;2023-05-23T00:08:34;7.68;;;5.50;;
78893;SDS011;68282;42.698;23.350;2023-05-23T00:11:00;7.53;;;5.15;;
78893;SDS011;68282;42.698;23.350;2023-05-23T00:13:25;8.90;;;5.55;;
78893;SDS011;68282;42.698;23.350;2023-05-23T00:15:50;8.43;;;5.88;;
78893;SDS011;68282;42.698;23.350;2023-05-23T00:18:16;8.65;;;6.10;;
78893;SDS011;68282;42.698;23.350;2023-05-23T00:20:42;9.13;;;5.57;;
78893;SDS011;68282;42.698;23.350;2023-05-23T00:23:11;6.55;;;5.07;;
78893;SDS011;68282;42.698;23.350;2023-05-23T00:25:43;7.57;;;5.38;;
78893;SDS011;68282;42.698;23.350;2023-05-23T00:28:12;9.90;;;6.25;;
78893;SDS011;68282;42.698;23.350;2023-05-23T00:30:38;7.60;;;5.63;;
78893;SDS011;68282;42.698;23.350;2023-05-23T00:33:03;9.32;;;5.53;;
78893;SDS011;68282;42.698;23.350;2023-05-23T00:35:28;7.60;;;5.35;;
78893;SDS011;68282;42.698;23.350;2023-05-23T00:37:54;8.70;;;6.03;;
78893;SDS011;68282;42.698;23.350;2023-05-23T00:40:20;7.53;;;5.20;;
78893;SDS011;68282;42.698;23.350;2023-05-23T00:42:46;8.45;;;6.10;;
78893;SDS011;68282;42.698;23.350;2023-05-23T00:45:12;9.18;;;6.28;;
78893;SDS011;68282;42.698;23.350;2023-05-23T00:47:38;9.48;;;5.90;;
78893;SDS011;68282;42.698;23.350;2023-05-23T00:50:06;7.68;;;5.72;;
78893;SDS011;68282;42.698;23.350;2023-05-23T00:52:35;7.05;;;4.97;;
78893;SDS011;68282;42.698;23.350;2023-05-23T00:55:01;8.10;;;6.28;;
78893;SDS011;68282;42.698;23.350;2023-05-23T00:57:27;8.98;;;6.43;;
78893;SDS011;68282;42.698;23.350;2023-05-23T00:59:52;9.30;;;6.68;;
78893;SDS011;68282;42.698;23.350;2023-05-23T01:02:18;11.13;;;5.78;;
78893;SDS011;68282;42.698;23.350;2023-05-23T01:04:45;7.95;;;6.47;;
78893;SDS011;68282;42.698;23.350;2023-05-23T01:07:18;11.25;;;5.95;;
78893;SDS011;68282;42.698;23.350;2023-05-23T01:09:43;11.02;;;6.10;;
78893;SDS011;68282;42.698;23.350;2023-05-23T01:12:19;9.02;;;6.72;;
78893;SDS011;68282;42.698;23.350;2023-05-23T01:14:57;8.45;;;6.57;;
78893;SDS011;68282;42.698;23.350;2023-05-23T01:17:43;7.75;;;6.28;;
78893;SDS011;68282;42.698;23.350;2023-05-23T01:20:27;10.35;;;6.65;;
78893;SDS011;68282;42.698;23.350;2023-05-23T01:28:15;8.63;;;6.53;;
78893;SDS011;68282;42.698;23.350;2023-05-23T01:30:43;9.88;;;7.18;;
78893;SDS011;68282;42.698;23.350;2023-05-23T01:33:10;9.10;;;7.13;;
78893;SDS011;68282;42.698;23.350;2023-05-23T01:35:39;8.95;;;6.93;;
78893;SDS011;68282;42.698;23.350;2023-05-23T01:38:07;12.15;;;7.70;;
78893;SDS011;68282;42.698;23.350;2023-05-23T01:40:33;9.88;;;7.20;;
78893;SDS011;68282;42.698;23.350;2023-05-23T01:42:59;11.15;;;7.25;;
78893;SDS011;68282;42.698;23.350;2023-05-23T01:45:25;9.57;;;7.45;;
78893;SDS011;68282;42.698;23.350;2023-05-23T01:47:52;9.50;;;7.20;;
78893;SDS011;68282;42.698;23.350;2023-05-23T01:50:18;11.13;;;7.25;;
78893;SDS011;68282;42.698;23.350;2023-05-23T01:52:47;11.02;;;7.25;;
78893;SDS011;68282;42.698;23.350;2023-05-23T01:55:15;12.30;;;6.20;;
78893;SDS011;68282;42.698;23.350;2023-05-23T01:57:46;8.80;;;6.40;;
78893;SDS011;68282;42.698;23.350;2023-05-23T02:00:14;9.13;;;6.70;;
78893;SDS011;68282;42.698;23.350;2023-05-23T02:02:40;9.88;;;7.18;;
78893;SDS011;68282;42.698;23.350;2023-05-23T02:05:06;8.07;;;6.10;;
78893;SDS011;68282;42.698;23.350;2023-05-23T02:07:31;10.38;;;7.00;;
78893;SDS011;68282;42.698;23.350;2023-05-23T02:09:57;10.77;;;6.93;;
78893;SDS011;68282;42.698;23.350;2023-05-23T02:12:24;8.80;;;7.05;;
78893;SDS011;68282;42.698;23.350;2023-05-23T02:14:49;10.73;;;6.25;;
78893;SDS011;68282;42.698;23.350;2023-05-23T02:17:17;12.95;;;7.05;;
78893;SDS011;68282;42.698;23.350;2023-05-23T02:19:43;9.73;;;7.07;;
78893;SDS011;68282;42.698;23.350;2023-05-23T02:22:08;12.75;;;7.60;;
78893;SDS011;68282;42.698;23.350;2023-05-23T02:24:34;11.82;;;7.55;;
78893;SDS011;68282;42.698;23.350;2023-05-23T02:26:59;10.35;;;7.47;;
78893;SDS011;68282;42.698;23.350;2023-05-23T02:29:25;12.05;;;7.18;;
78893;SDS011;68282;42.698;23.350;2023-05-23T02:31:50;12.73;;;7.43;;
78893;SDS011;68282;42.698;23.350;2023-05-23T02:34:15;11.20;;;7.32;;
78893;SDS011;68282;42.698;23.350;2023-05-23T02:36:41;10.40;;;7.45;;
78893;SDS011;68282;42.698;23.350;2023-05-23T02:39:06;10.13;;;7.40;;
78893;SDS011;68282;42.698;23.350;2023-05-23T02:41:32;12.10;;;7.57;;
78893;SDS011;68282;42.698;23.350;2023-05-23T02:43:57;11.50;;;8.00;;
78893;SDS011;68282;42.698;23.350;2023-05-23T02:46:23;11.02;;;8.15;;
78893;SDS011;68282;42.698;23.350;2023-05-23T02:48:48;10.77;;;7.65;;
78893;SDS011;68282;42.698;23.350;2023-05-23T02:51:14;13.95;;;8.43;;
78893;SDS011;68282;42.698;23.350;2023-05-23T02:53:40;14.23;;;8.88;;
78893;SDS011;68282;42.698;23.350;2023-05-23T02:56:06;11.95;;;8.35;;
78893;SDS011;68282;42.698;23.350;2023-05-23T02:58:32;9.93;;;8.10;;
78893;SDS011;68282;42.698;23.350;2023-05-23T03:00:59;10.40;;;7.57;;
78893;SDS011;68282;42.698;23.350;2023-05-23T03:03:27;9.57;;;7.10;;
78893;SDS011;68282;42.698;23.350;2023-05-23T03:05:53;9.02;;;7.40;;
78893;SDS011;68282;42.698;23.350;2023-05-23T03:08:18;12.48;;;8.30;;
78893;SDS011;68282;42.698;23.350;2023-05-23T03:10:44;19.00;;;11.88;;
78893;SDS011;68282;42.698;23.350;2023-05-23T03:13:10;19.60;;;13.73;;
78893;SDS011;68282;42.698;23.350;2023-05-23T03:15:35;16.35;;;11.80;;
78893;SDS011;68282;42.698;23.350;2023-05-23T03:18:00;20.00;;;11.68;;
78893;SDS011;68282;42.698;23.350;2023-05-23T03:20:26;15.55;;;10.43;;
78893;SDS011;68282;42.698;23.350;2023-05-23T03:22:51;11.55;;;7.53;;
78893;SDS011;68282;42.698;23.350;2023-05-23T03:25:17;11.50;;;7.38;;
78893;SDS011;68282;42.698;23.350;2023-05-23T03:27:43;11.52;;;5.80;;
78893;SDS011;68282;42.698;23.350;2023-05-23T03:30:08;8.75;;;5.55;;
78893;SDS011;68282;42.698;23.350;2023-05-23T03:32:34;10.25;;;6.00;;
78893;SDS011;68282;42.698;23.350;2023-05-23T03:35:00;9.45;;;5.95;;
78893;SDS011;68282;42.698;23.350;2023-05-23T03:37:25;8.30;;;5.32;;
78893;SDS011;68282;42.698;23.350;2023-05-23T03:39:50;14.00;;;6.90;;
78893;SDS011;68282;42.698;23.350;2023-05-23T03:42:16;12.32;;;6.03;;
78893;SDS011;68282;42.698;23.350;2023-05-23T03:44:42;11.05;;;6.35;;
78893;SDS011;68282;42.698;23.350;2023-05-23T03:47:07;10.93;;;6.07;;
78893;SDS011;68282;42.698;23.350;2023-05-23T03:49:33;10.45;;;6.20;;
78893;SDS011;68282;42.698;23.350;2023-05-23T03:51:59;13.52;;;6.85;;
78893;SDS011;68282;42.698;23.350;2023-05-23T03:54:24;11.27;;;5.90;;
78893;SDS011;68282;42.698;23.350;2023-05-23T03:56:51;12.75;;;7.00;;
78893;SDS011;68282;42.698;23.350;2023-05-23T03:59:17;20.60;;;7.57;;
78893;SDS011;68282;42.698;23.350;2023-05-23T04:01:42;13.98;;;7.30;;
78893;SDS011;68282;42.698;23.350;2023-05-23T04:04:08;14.43;;;8.23;;
78893;SDS011;68282;42.698;23.350;2023-05-23T04:06:33;15.68;;;9.63;;
78893;SDS011;68282;42.698;23.350;2023-05-23T04:08:58;14.70;;;8.75;;
78893;SDS011;68282;42.698;23.350;2023-05-23T04:11:25;16.95;;;9.45;;
78893;SDS011;68282;42.698;23.350;2023-05-23T04:13:50;19.88;;;9.13;;
78893;SDS011;68282;42.698;23.350;2023-05-23T04:16:16;18.20;;;10.40;;
78893;SDS011;68282;42.698;23.350;2023-05-23T04:18:41;16.77;;;8.93;;
78893;SDS011;68282;42.698;23.350;2023-05-23T04:21:07;22.75;;;10.68;;
78893;SDS011;68282;42.698;23.350;2023-05-23T04:23:32;20.67;;;11.48;;
78893;SDS011;68282;42.698;23.350;2023-05-23T04:25:58;21.63;;;10.15;;
78893;SDS011;68282;42.698;23.350;2023-05-23T04:28:24;15.75;;;10.48;;
78893;SDS011;68282;42.698;23.350;2023-05-23T04:30:51;22.45;;;11.98;;
78893;SDS011;68282;42.698;23.350;2023-05-23T04:33:17;25.40;;;13.77;;
78893;SDS011;68282;42.698;23.350;2023-05-23T04:35:43;23.55;;;13.43;;
78893;SDS011;68282;42.698;23.350;2023-05-23T04:38:08;20.52;;;11.90;;
78893;SDS011;68282;42.698;23.350;2023-05-23T04:40:34;14.07;;;7.55;;
78893;SDS011;68282;42.698;23.350;2023-05-23T04:42:59;12.60;;;7.93;;
78893;SDS011;68282;42.698;23.350;2023-05-23T04:45:25;11.35;;;7.68;;
78893;SDS011;68282;42.698;23.350;2023-05-23T04:47:51;12.05;;;8.38;;
78893;SDS011;68282;42.698;23.350;2023-05-23T04:50:19;15.48;;;9.23;;
78893;SDS011;68282;42.698;23.350;2023-05-23T04:52:46;16.05;;;8.43;;
78893;SDS011;68282;42.698;23.350;2023-05-23T04:55:11;10.88;;;7.68;;
78893;SDS011;68282;42.698;23.350;2023-05-23T04:57:37;13.02;;;7.90;;
78893;SDS011;68282;42.698;23.350;2023-05-23T05:00:03;14.27;;;8.50;;
78893;SDS011;68282;42.698;23.350;2023-05-23T05:02:35;14.57;;;8.35;;
78893;SDS011;68282;42.698;23.350;2023-05-23T05:05:02;14.38;;;7.78;;
78893;SDS011;68282;42.698;23.350;2023-05-23T05:07:31;19.98;;;10.68;;
78893;SDS011;68282;42.698;23.350;2023-05-23T05:09:56;14.07;;;9.00;;
78893;SDS011;68282;42.698;23.350;2023-05-23T05:12:22;21.05;;;9.75;;
78893;SDS011;68282;42.698;23.350;2023-05-23T05:14:48;20.70;;;11.10;;
78893;SDS011;68282;42.698;23.350;2023-05-23T05:17:13;22.77;;;12.23;;
78893;SDS011;68282;42.698;23.350;2023-05-23T05:19:38;21.55;;;11.55;;
78893;SDS011;68282;42.698;23.350;2023-05-23T05:22:04;20.50;;;11.98;;
78893;SDS011;68282;42.698;23.350;2023-05-23T05:24:30;23.25;;;12.23;;
78893;SDS011;68282;42.698;23.350;2023-05-23T05:26:56;24.52;;;13.07;;
78893;SDS011;68282;42.698;23.350;2023-05-23T05:29:22;25.67;;;14.48;;
78893;SDS011;68282;42.698;23.350;2023-05-23T05:31:47;22.60;;;13.43;;
78893;SDS011;68282;42.698;23.350;2023-05-23T05:34:13;25.67;;;14.18;;
78893;SDS011;68282;42.698;23.350;2023-05-23T05:36:38;28.75;;;14.48;;
78893;SDS011;68282;42.698;23.350;2023-05-23T05:39:11;26.98;;;15.40;;
78893;SDS011;68282;42.698;23.350;2023-05-23T05:41:37;25.77;;;14.07;;
78893;SDS011;68282;42.698;23.350;2023-05-23T05:44:03;23.27;;;12.65;;
78893;SDS011;68282;42.698;23.350;2023-05-23T05:46:29;26.23;;;14.57;;
78893;SDS011;68282;42.698;23.350;2023-05-23T05:48:54;26.98;;;12.82;;
78893;SDS011;68282;42.698;23.350;2023-05-23T05:51:19;24.23;;;12.98;;
78893;SDS011;68282;42.698;23.350;2023-05-23T05:53:45;24.00;;;14.27;;
78893;SDS011;68282;42.698;23.350;2023-05-23T05:56:11;27.65;;;14.93;;
78893;SDS011;68282;42.698;23.350;2023-05-23T05:58:36;32.03;;;14.52;;
78893;SDS011;68282;42.698;23.350;2023-05-23T06:01:02;23.65;;;13.77;;
78893;SDS011;68282;42.698;23.350;2023-05-23T06:03:27;28.27;;;15.65;;
78893;SDS011;68282;42.698;23.350;2023-05-23T06:05:53;24.73;;;13.50;;
78893;SDS011;68282;42.698;23.350;2023-05-23T06:08:18;26.17;;;13.75;;
78893;SDS011;68282;42.698;23.350;2023-05-23T06:10:43;24.83;;;13.50;;
78893;SDS011;68282;42.698;23.350;2023-05-23T06:13:09;26.05;;;14.57;;
78893;SDS011;68282;42.698;23.350;2023-05-23T06:15:34;26.15;;;13.52;;
78893;SDS011;68282;42.698;23.350;2023-05-23T06:18:00;25.80;;;12.60;;
78893;SDS011;68282;42.698;23.350;2023-05-23T06:20:25;26.45;;;12.38;;
78893;SDS011;68282;42.698;23.350;2023-05-23T06:22:51;25.55;;;13.55;;
78893;SDS011;68282;42.698;23.350;2023-05-23T06:25:16;34.40;;;15.82;;
78893;SDS011;68282;42.698;23.350;2023-05-23T06:27:42;26.23;;;15.40;;
78893;SDS011;68282;42.698;23.350;2023-05-23T06:30:08;30.67;;;15.93;;
78893;SDS011;68282;42.698;23.350;2023-05-23T06:32:34;29.85;;;15.63;;
78893;SDS011;68282;42.698;23.350;2023-05-23T06:35:00;28.17;;;15.43;;
78893;SDS011;68282;42.698;23.350;2023-05-23T06:37:26;34.28;;;17.98;;
78893;SDS011;68282;42.698;23.350;2023-05-23T06:39:51;32.53;;;17.27;;
78893;SDS011;68282;42.698;23.350;2023-05-23T06:42:17;39.35;;;19.30;;
78893;SDS011;68282;42.698;23.350;2023-05-23T06:44:42;31.25;;;18.48;;
78893;SDS011;68282;42.698;23.350;2023-05-23T06:47:07;33.00;;;17.38;;
78893;SDS011;68282;42.698;23.350;2023-05-23T06:49:33;35.40;;;19.17;;
78893;SDS011;68282;42.698;23.350;2023-05-23T06:51:58;35.03;;;18.25;;
78893;SDS011;68282;42.698;23.350;2023-05-23T06:54:23;37.00;;;18.58;;
78893;SDS011;68282;42.698;23.350;2023-05-23T06:56:49;30.27;;;16.90;;
78893;SDS011;68282;42.698;23.350;2023-05-23T06:59:14;29.77;;;17.33;;
78893;SDS011;68282;42.698;23.350;2023-05-23T07:01:40;37.88;;;18.40;;
78893;SDS011;68282;42.698;23.350;2023-05-23T07:04:05;29.60;;;16.30;;
78893;SDS011;68282;42.698;23.350;2023-05-23T07:06:30;32.00;;;18.77;;
78893;SDS011;68282;42.698;23.350;2023-05-23T07:08:56;31.02;;;18.13;;
78893;SDS011;68282;42.698;23.350;2023-05-23T07:11:22;32.33;;;18.45;;
78893;SDS011;68282;42.698;23.350;2023-05-23T07:13:48;31.77;;;18.38;;
78893;SDS011;68282;42.698;23.350;2023-05-23T07:16:13;33.92;;;18.17;;
78893;SDS011;68282;42.698;23.350;2023-05-23T07:18:39;33.17;;;16.65;;
78893;SDS011;68282;42.698;23.350;2023-05-23T07:21:04;34.10;;;17.73;;
78893;SDS011;68282;42.698;23.350;2023-05-23T07:23:32;34.35;;;18.60;;
78893;SDS011;68282;42.698;23.350;2023-05-23T07:25:58;37.20;;;18.33;;
78893;SDS011;68282;42.698;23.350;2023-05-23T07:28:24;30.65;;;18.00;;
78893;SDS011;68282;42.698;23.350;2023-05-23T07:30:50;32.53;;;19.33;;
78893;SDS011;68282;42.698;23.350;2023-05-23T07:33:15;30.33;;;16.60;;
78893;SDS011;68282;42.698;23.350;2023-05-23T07:35:41;29.42;;;18.48;;
78893;SDS011;68282;42.698;23.350;2023-05-23T07:38:08;33.22;;;18.65;;
78893;SDS011;68282;42.698;23.350;2023-05-23T07:40:33;33.47;;;18.30;;
78893;SDS011;68282;42.698;23.350;2023-05-23T07:42:59;35.65;;;20.58;;
78893;SDS011;68282;42.698;23.350;2023-05-23T07:45:24;33.90;;;19.25;;
78893;SDS011;68282;42.698;23.350;2023-05-23T07:47:50;34.60;;;18.58;;
78893;SDS011;68282;42.698;23.350;2023-05-23T07:50:16;27.90;;;16.80;;
78893;SDS011;68282;42.698;23.350;2023-05-23T07:52:42;29.73;;;17.27;;
78893;SDS011;68282;42.698;23.350;2023-05-23T07:55:08;31.52;;;17.77;;
78893;SDS011;68282;42.698;23.350;2023-05-23T07:57:34;30.25;;;18.58;;
78893;SDS011;68282;42.698;23.350;2023-05-23T07:59:59;30.38;;;17.10;;
78893;SDS011;68282;42.698;23.350;2023-05-23T08:02:25;28.02;;;17.20;;
78893;SDS011;68282;42.698;23.350;2023-05-23T08:04:50;27.60;;;17.88;;
78893;SDS011;68282;42.698;23.350;2023-05-23T08:07:17;29.85;;;19.55;;
78893;SDS011;68282;42.698;23.350;2023-05-23T08:09:43;34.95;;;18.92;;
78893;SDS011;68282;42.698;23.350;2023-05-23T08:12:08;26.60;;;16.63;;
78893;SDS011;68282;42.698;23.350;2023-05-23T08:14:34;23.42;;;14.70;;
78893;SDS011;68282;42.698;23.350;2023-05-23T08:17:01;24.88;;;14.48;;
78893;SDS011;68282;42.698;23.350;2023-05-23T08:19:26;22.45;;;13.75;;
78893;SDS011;68282;42.698;23.350;2023-05-23T08:21:52;24.58;;;14.77;;
78893;SDS011;68282;42.698;23.350;2023-05-23T08:24:18;19.98;;;13.15;;
78893;SDS011;68282;42.698;23.350;2023-05-23T08:26:44;18.67;;;12.27;;
78893;SDS011;68282;42.698;23.350;2023-05-23T08:29:10;23.92;;;14.32;;
78893;SDS011;68282;42.698;23.350;2023-05-23T08:31:35;22.02;;;13.63;;
78893;SDS011;68282;42.698;23.350;2023-05-23T08:34:01;21.45;;;13.40;;
78893;SDS011;68282;42.698;23.350;2023-05-23T08:36:26;19.13;;;13.10;;
78893;SDS011;68282;42.698;23.350;2023-05-23T08:38:52;18.67;;;12.60;;
78893;SDS011;68282;42.698;23.350;2023-05-23T08:41:18;22.17;;;13.30;;
78893;SDS011;68282;42.698;23.350;2023-05-23T08:43:45;19.80;;;13.27;;
78893;SDS011;68282;42.698;23.350;2023-05-23T08:46:11;15.50;;;11.25;;
78893;SDS011;68282;42.698;23.350;2023-05-23T08:48:38;14.82;;;10.48;;
78893;SDS011;68282;42.698;23.350;2023-05-23T08:51:04;16.38;;;10.70;;
78893;SDS011;68282;42.698;23.350;2023-05-23T08:53:33;12.77;;;9.55;;
78893;SDS011;68282;42.698;23.350;2023-05-23T08:56:01;14.85;;;9.63;;
78893;SDS011;68282;42.698;23.350;2023-05-23T08:58:30;15.80;;;9.63;;
78893;SDS011;68282;42.698;23.350;2023-05-23T09:00:58;20.02;;;10.43;;
78893;SDS011;68282;42.698;23.350;2023-05-23T09:03:27;12.10;;;8.35;;
78893;SDS011;68282;42.698;23.350;2023-05-23T09:05:53;12.50;;;9.45;;
78893;SDS011;68282;42.698;23.350;2023-05-23T09:08:19;12.50;;;8.88;;
78893;SDS011;68282;42.698;23.350;2023-05-23T09:10:45;15.77;;;8.45;;
78893;SDS011;68282;42.698;23.350;2023-05-23T09:13:13;13.63;;;8.52;;
78893;SDS011;68282;42.698;23.350;2023-05-23T09:15:54;13.50;;;8.23;;
78893;SDS011;68282;42.698;23.350;2023-05-23T09:18:41;10.57;;;7.45;;
78893;SDS011;68282;42.698;23.350;2023-05-23T09:21:07;10.32;;;7.18;;
78893;SDS011;68282;42.698;23.350;2023-05-23T09:23:35;12.05;;;7.95;;
78893;SDS011;68282;42.698;23.350;2023-05-23T09:26:08;10.88;;;8.57;;
78893;SDS011;68282;42.698;23.350;2023-05-23T09:28:35;10.77;;;7.50;;
78893;SDS011;68282;42.698;23.350;2023-05-23T09:31:02;9.93;;;6.70;;
78893;SDS011;68282;42.698;23.350;2023-05-23T09:33:37;7.03;;;5.38;;
78893;SDS011;68282;42.698;23.350;2023-05-23T09:36:12;10.30;;;5.85;;
78893;SDS011;68282;42.698;23.350;2023-05-23T09:38:42;9.48;;;5.20;;
78893;SDS011;68282;42.698;23.350;2023-05-23T09:41:09;9.95;;;5.68;;
78893;SDS011;68282;42.698;23.350;2023-05-23T09:43:39;9.05;;;5.78;;
78893;SDS011;68282;42.698;23.350;2023-05-23T09:46:14;7.68;;;5.10;;
78893;SDS011;68282;42.698;23.350;2023-05-23T09:48:39;8.05;;;5.00;;
78893;SDS011;68282;42.698;23.350;2023-05-23T09:51:10;9.23;;;5.43;;
78893;SDS011;68282;42.698;23.350;2023-05-23T09:53:35;8.35;;;4.35;;
78893;SDS011;68282;42.698;23.350;2023-05-23T09:56:01;5.63;;;4.72;;
78893;SDS011;68282;42.698;23.350;2023-05-23T09:58:28;6.95;;;4.30;;
78893;SDS011;68282;42.698;23.350;2023-05-23T10:00:54;7.38;;;4.43;;
78893;SDS011;68282;42.698;23.350;2023-05-23T10:03:27;5.90;;;4.40;;
78893;SDS011;68282;42.698;23.350;2023-05-23T10:05:59;8.90;;;4.90;;
78893;SDS011;68282;42.698;23.350;2023-05-23T10:09:04;8.35;;;4.82;;
78893;SDS011;68282;42.698;23.350;2023-05-23T10:14:06;6.13;;;4.57;;
78893;SDS011;68282;42.698;23.350;2023-05-23T10:19:05;6.90;;;4.43;;
78893;SDS011;68282;42.698;23.350;2023-05-23T10:21:38;6.97;;;4.30;;
78893;SDS011;68282;42.698;23.350;2023-05-23T10:24:08;5.90;;;4.07;;
78893;SDS011;68282;42.698;23.350;2023-05-23T10:26:36;5.72;;;4.13;;
78893;SDS011;68282;42.698;23.350;2023-05-23T10:29:01;6.38;;;4.07;;
78893;SDS011;68282;42.698;23.350;2023-05-23T10:31:27;11.45;;;4.85;;
78893;SDS011;68282;42.698;23.350;2023-05-23T10:36:47;6.22;;;3.42;;
78893;SDS011;68282;42.698;23.350;2023-05-23T10:39:26;5.65;;;3.90;;
78893;SDS011;68282;42.698;23.350;2023-05-23T10:41:59;7.28;;;4.05;;
78893;SDS011;68282;42.698;23.350;2023-05-23T10:44:34;7.18;;;3.90;;
78893;SDS011;68282;42.698;23.350;2023-05-23T10:47:00;7.57;;;3.88;;
78893;SDS011;68282;42.698;23.350;2023-05-23T10:49:45;5.82;;;3.95;;
78893;SDS011;68282;42.698;23.350;2023-05-23T10:52:17;7.10;;;4.38;;
78893;SDS011;68282;42.698;23.350;2023-05-23T10:54:43;8.25;;;4.22;;
78893;SDS011;68282;42.698;23.350;2023-05-23T10:57:14;7.18;;;3.90;;
78893;SDS011;68282;42.698;23.350;2023-05-23T10:59:40;6.07;;;4.20;;
78893;SDS011;68282;42.698;23.350;2023-05-23T11:02:11;5.78;;;3.70;;
78893;SDS011;68282;42.698;23.350;2023-05-23T11:04:39;8.68;;;4.20;;
78893;SDS011;68282;42.698;23.350;2023-05-23T11:07:08;5.13;;;3.47;;
78893;SDS011;68282;42.698;23.350;2023-05-23T11:12:36;7.38;;;3.88;;
78893;SDS011;68282;42.698;23.350;2023-05-23T11:15:19;8.18;;;4.32;;
78893;SDS011;68282;42.698;23.350;2023-05-23T11:17:52;6.43;;;4.03;;
78893;SDS011;68282;42.698;23.350;2023-05-23T11:20:18;6.88;;;3.63;;
78893;SDS011;68282;42.698;23.350;2023-05-23T11:25:39;5.63;;;3.45;;
78893;SDS011;68282;42.698;23.350;2023-05-23T11:28:06;7.95;;;4.15;;
78893;SDS011;68282;42.698;23.350;2023-05-23T11:30:31;5.15;;;3.38;;
78893;SDS011;68282;42.698;23.350;2023-05-23T11:32:57;5.53;;;3.40;;
78893;SDS011;68282;42.698;23.350;2023-05-23T11:35:23;5.90;;;3.58;;
78893;SDS011;68282;42.698;23.350;2023-05-23T11:37:48;8.70;;;3.90;;
78893;SDS011;68282;42.698;23.350;2023-05-23T11:42:55;8.88;;;3.70;;
78893;SDS011;68282;42.698;23.350;2023-05-23T11:45:21;4.75;;;3.72;;
78893;SDS011;68282;42.698;23.350;2023-05-23T11:47:47;5.75;;;3.22;;
78893;SDS011;68282;42.698;23.350;2023-05-23T11:50:13;6.65;;;4.10;;
78893;SDS011;68282;42.698;23.350;2023-05-23T11:52:40;7.60;;;3.92;;
78893;SDS011;68282;42.698;23.350;2023-05-23T11:55:06;5.45;;;3.50;;
78893;SDS011;68282;42.698;23.350;2023-05-23T11:57:32;6.82;;;4.15;;
78893;SDS011;68282;42.698;23.350;2023-05-23T11:59:58;6.00;;;4.05;;
78893;SDS011;68282;42.698;23.350;2023-05-23T12:02:26;5.43;;;3.78;;
78893;SDS011;68282;42.698;23.350;2023-05-23T12:04:52;6.10;;;3.80;;
78893;SDS011;68282;42.698;23.350;2023-05-23T12:07:20;5.38;;;3.92;;
78893;SDS011;68282;42.698;23.350;2023-05-23T12:09:46;6.13;;;3.38;;
78893;SDS011;68282;42.698;23.350;2023-05-23T12:12:11;5.07;;;3.60;;
78893;SDS011;68282;42.698;23.350;2023-05-23T12:14:37;5.50;;;3.55;;
78893;SDS011;68282;42.698;23.350;2023-05-23T12:17:09;4.80;;;3.40;;
78893;SDS011;68282;42.698;23.350;2023-05-23T12:19:35;4.05;;;3.17;;
78893;SDS011;68282;42.698;23.350;2023-05-23T12:22:04;7.40;;;3.53;;
78893;SDS011;68282;42.698;23.350;2023-05-23T12:24:33;7.13;;;3.85;;
78893;SDS011;68282;42.698;23.350;2023-05-23T12:26:59;5.80;;;3.30;;
78893;SDS011;68282;42.698;23.350;2023-05-23T12:29:27;5.30;;;3.85;;
78893;SDS011;68282;42.698;23.350;2023-05-23T12:31:57;7.07;;;3.50;;
78893;SDS011;68282;42.698;23.350;2023-05-23T12:34:24;7.68;;;3.67;;
78893;SDS011;68282;42.698;23.350;2023-05-23T12:36:53;8.07;;;3.90;;
78893;SDS011;68282;42.698;23.350;2023-05-23T12:39:26;8.32;;;4.45;;
78893;SDS011;68282;42.698;23.350;2023-05-23T12:41:53;6.05;;;3.35;;
78893;SDS011;68282;42.698;23.350;2023-05-23T12:44:22;5.75;;;3.47;;
78893;SDS011;68282;42.698;23.350;2023-05-23T12:46:48;7.72;;;3.55;;
78893;SDS011;68282;42.698;23.350;2023-05-23T12:49:13;6.45;;;3.75;;
78893;SDS011;68282;42.698;23.350;2023-05-23T12:51:39;6.13;;;3.47;;
78893;SDS011;68282;42.698;23.350;2023-05-23T12:54:05;4.70;;;3.40;;
78893;SDS011;68282;42.698;23.350;2023-05-23T12:56:32;4.22;;;3.00;;
78893;SDS011;68282;42.698;23.350;2023-05-23T12:58:57;5.85;;;3.80;;
78893;SDS011;68282;42.698;23.350;2023-05-23T13:01:23;6.45;;;3.42;;
78893;SDS011;68282;42.698;23.350;2023-05-23T13:03:48;4.05;;;3.28;;
78893;SDS011;68282;42.698;23.350;2023-05-23T13:06:14;5.82;;;3.35;;
78893;SDS011;68282;42.698;23.350;2023-05-23T13:08:40;4.70;;;3.67;;
78893;SDS011;68282;42.698;23.350;2023-05-23T13:11:05;3.60;;;2.90;;
78893;SDS011;68282;42.698;23.350;2023-05-23T13:13:31;8.93;;;3.35;;
78893;SDS011;68282;42.698;23.350;2023-05-23T13:15:59;6.45;;;3.50;;
78893;SDS011;68282;42.698;23.350;2023-05-23T13:18:24;7.75;;;3.58;;
78893;SDS011;68282;42.698;23.350;2023-05-23T13:20:50;6.13;;;3.42;;
78893;SDS011;68282;42.698;23.350;2023-05-23T13:23:15;6.70;;;3.42;;
78893;SDS011;68282;42.698;23.350;2023-05-23T13:25:41;6.03;;;3.95;;
78893;SDS011;68282;42.698;23.350;2023-05-23T13:28:06;4.80;;;3.25;;
78893;SDS011;68282;42.698;23.350;2023-05-23T13:30:32;5.03;;;3.40;;
78893;SDS011;68282;42.698;23.350;2023-05-23T13:32:59;4.00;;;3.10;;
78893;SDS011;68282;42.698;23.350;2023-05-23T13:35:24;5.45;;;3.30;;
78893;SDS011;68282;42.698;23.350;2023-05-23T13:37:50;5.32;;;3.53;;
78893;SDS011;68282;42.698;23.350;2023-05-23T13:40:16;4.20;;;3.28;;
78893;SDS011;68282;42.698;23.350;2023-05-23T13:42:43;6.05;;;3.85;;
78893;SDS011;68282;42.698;23.350;2023-05-23T13:45:09;5.45;;;3.20;;
78893;SDS011;68282;42.698;23.350;2023-05-23T13:47:35;4.20;;;3.35;;
78893;SDS011;68282;42.698;23.350;2023-05-23T13:50:01;6.57;;;3.47;;
78893;SDS011;68282;42.698;23.350;2023-05-23T13:52:27;3.80;;;2.88;;
78893;SDS011;68282;42.698;23.350;2023-05-23T13:54:53;4.22;;;3.47;;
78893;SDS011;68282;42.698;23.350;2023-05-23T13:57:18;4.53;;;3.47;;
78893;SDS011;68282;42.698;23.350;2023-05-23T13:59:44;5.00;;;3.55;;
78893;SDS011;68282;42.698;23.350;2023-05-23T14:02:09;4.55;;;3.38;;
78893;SDS011;68282;42.698;23.350;2023-05-23T14:04:35;5.50;;;3.58;;
78893;SDS011;68282;42.698;23.350;2023-05-23T14:07:00;4.88;;;3.58;;
78893;SDS011;68282;42.698;23.350;2023-05-23T14:09:26;9.07;;;3.60;;
78893;SDS011;68282;42.698;23.350;2023-05-23T14:11:51;5.90;;;3.65;;
78893;SDS011;68282;42.698;23.350;2023-05-23T14:14:17;8.55;;;3.80;;
78893;SDS011;68282;42.698;23.350;2023-05-23T14:16:42;5.93;;;3.70;;
78893;SDS011;68282;42.698;23.350;2023-05-23T14:19:08;6.10;;;3.70;;
78893;SDS011;68282;42.698;23.350;2023-05-23T14:21:33;5.85;;;3.17;;
78893;SDS011;68282;42.698;23.350;2023-05-23T14:24:00;4.53;;;3.30;;
78893;SDS011;68282;42.698;23.350;2023-05-23T14:26:25;7.72;;;6.15;;
78893;SDS011;68282;42.698;23.350;2023-05-23T14:28:51;6.15;;;4.00;;
78893;SDS011;68282;42.698;23.350;2023-05-23T14:31:16;5.40;;;3.33;;
78893;SDS011;68282;42.698;23.350;2023-05-23T14:33:42;6.07;;;3.35;;
78893;SDS011;68282;42.698;23.350;2023-05-23T14:36:07;4.38;;;3.42;;
78893;SDS011;68282;42.698;23.350;2023-05-23T14:38:33;5.50;;;3.28;;
78893;SDS011;68282;42.698;23.350;2023-05-23T14:40:58;5.28;;;3.78;;
78893;SDS011;68282;42.698;23.350;2023-05-23T14:43:24;5.38;;;3.83;;